Helga — ERBD — position and weather

sailwx.info

Track history (hours):
 
Tides and Currents Weather Stations Pressure Air Temp Water Temp Dewpoint Dewpoint Depression Visibility Wind Speed Wind Dir Waves Ship Positions

Helga

Last reported at 2017-Oct-07 19:31 UTC. Time now 2017-Oct-16 22:28 UTC.
Position N 45°30' E 036°44'.
Warning: this ship's position is 9 days out of date.

Length 79 m.

Type: Ship. MMSI: 214180204.

Date/timePositionNaut miles runAvg speedWind from/ knotsBaromVisibWave heightAir tempDewpointWater temp
2017-Oct-07 19:31N 45°30' E 036°44'0 8.4
2017-Oct-07 19:30N 45°30' E 036°44'4 8.0
2017-Oct-07 19:00N 45°26' E 036°42'4 8.2
2017-Oct-07 18:30N 45°22' E 036°40'4 7.1
2017-Oct-07 18:00N 45°20' E 036°37'4 7.8
2017-Oct-07 17:30N 45°19' E 036°31'3 6.3
2017-Oct-07 17:00N 45°16' E 036°29'3 1.1
2017-Oct-07 14:18N 45°14' E 036°31'0 0.0
2017-Oct-07 13:59N 45°14' E 036°31'0 0.0
2017-Oct-07 13:25N 45°14' E 036°31'0 0.0
2017-Oct-07 13:00N 45°14' E 036°31'0 0.0
2017-Oct-07 11:39N 45°14' E 036°31'0 0.0
2017-Oct-07 11:30N 45°14' E 036°31'0 0.0
2017-Oct-07 11:00N 45°14' E 036°31'0 0.0
2017-Oct-07 10:26N 45°14' E 036°31'0 0.0
2017-Oct-07 09:49N 45°14' E 036°31'0 0.0
2017-Oct-07 06:31N 45°14' E 036°31'0 0.2
2017-Oct-07 06:29N 45°14' E 036°31'0 0.0
2017-Oct-07 06:00N 45°14' E 036°31'0 0.0
2017-Oct-07 05:29N 45°14' E 036°31'0 0.0
2017-Oct-07 05:00N 45°14' E 036°31'0 0.0
2017-Oct-07 04:30N 45°14' E 036°31'0 0.0
2017-Oct-07 03:58N 45°14' E 036°31'0 0.0
2017-Oct-07 03:23N 45°14' E 036°31'0 0.0
2017-Oct-07 02:22N 45°14' E 036°31'0 0.0
2017-Oct-07 01:54N 45°14' E 036°31'0 0.0
2017-Oct-07 01:30N 45°14' E 036°31'0 0.0
2017-Oct-07 00:29N 45°14' E 036°31'0 0.0
2017-Oct-07 00:00N 45°14' E 036°31'0 0.0
2017-Oct-06 23:30N 45°14' E 036°31'0 0.0
2017-Oct-06 22:23N 45°14' E 036°31'0 0.0
2017-Oct-06 21:52N 45°14' E 036°31'0 0.0
2017-Oct-06 21:29N 45°14' E 036°31'0 0.0
2017-Oct-06 20:05N 45°14' E 036°31'0 0.2
2017-Oct-06 20:00N 45°14' E 036°31'0 0.0
2017-Oct-06 19:30N 45°14' E 036°31'0 0.0
2017-Oct-06 15:40N 45°14' E 036°31'0 0.0
2017-Oct-06 15:17N 45°14' E 036°31'0 0.0
2017-Oct-06 15:00N 45°14' E 036°31'0 0.0
2017-Oct-06 14:29N 45°14' E 036°31'0 0.0
2017-Oct-06 13:58N 45°14' E 036°31'0 0.0
2017-Oct-06 13:14N 45°14' E 036°31'0 0.0
2017-Oct-06 12:55N 45°14' E 036°31'0 0.0
2017-Oct-06 12:30N 45°14' E 036°31'0 0.0
2017-Oct-06 11:58N 45°14' E 036°31'0 0.0
2017-Oct-06 11:22N 45°14' E 036°31'0 0.0
2017-Oct-06 10:50N 45°14' E 036°31'0 0.0
2017-Oct-06 10:29N 45°14' E 036°31'0 0.0
2017-Oct-06 09:51N 45°14' E 036°31'0 0.1
2017-Oct-06 09:29N 45°14' E 036°31'0 0.0
2017-Oct-06 08:56N 45°14' E 036°31'0 0.0
2017-Oct-06 08:29N 45°14' E 036°31'0 0.0
2017-Oct-06 08:00N 45°14' E 036°31'0 0.0
2017-Oct-06 07:24N 45°14' E 036°31'0 0.1
2017-Oct-06 07:00N 45°14' E 036°31'0 0.1
2017-Oct-06 06:30N 45°14' E 036°31'0 0.0
2017-Oct-06 05:57N 45°14' E 036°31'0 0.0
2017-Oct-06 05:29N 45°14' E 036°31'0 0.1
2017-Oct-06 05:00N 45°14' E 036°31'0 0.0
2017-Oct-06 04:30N 45°14' E 036°31'0 0.1
2017-Oct-06 04:00N 45°14' E 036°31'  
2017-Oct-03 13:04N 40°56' E 029°03'0 6.4
2017-Oct-03 13:00N 40°55' E 029°04'4 7.3
2017-Oct-03 12:29N 40°53' E 029°08'2 4.2
2017-Oct-03 12:00N 40°53' E 029°11'2 2.7
2017-Oct-03 11:21N 40°52' E 029°13'0 0.1
2017-Oct-03 10:57N 40°52' E 029°13'0 0.0
2017-Oct-03 10:02N 40°52' E 029°13'0 0.3
2017-Oct-03 09:56N 40°52' E 029°13'0 0.1
2017-Oct-03 09:26N 40°52' E 029°13'0 0.1
2017-Oct-03 08:56N 40°52' E 029°13'0 0.0
2017-Oct-03 08:26N 40°52' E 029°13'0 0.1
2017-Oct-03 07:56N 40°52' E 029°13'0 0.0
2017-Oct-03 07:26N 40°52' E 029°13'0 0.1
2017-Oct-03 06:56N 40°52' E 029°13'0 0.0
2017-Oct-03 06:26N 40°52' E 029°13'0 0.1
2017-Oct-03 05:56N 40°52' E 029°13'0 0.0
2017-Oct-03 05:26N 40°52' E 029°13'0 0.0
2017-Oct-03 04:56N 40°52' E 029°13'0 0.0
2017-Oct-03 04:20N 40°52' E 029°13'0 0.0
2017-Oct-03 03:56N 40°52' E 029°13'0 0.0
2017-Oct-03 03:26N 40°52' E 029°13'0 0.1
2017-Oct-03 02:56N 40°52' E 029°13'0 0.0
2017-Oct-03 02:26N 40°52' E 029°13'0 0.0
2017-Oct-03 01:50N 40°52' E 029°13'0 0.0
2017-Oct-03 01:20N 40°52' E 029°13'0 0.0
2017-Oct-03 00:50N 40°52' E 029°13'0 0.0
2017-Oct-03 00:26N 40°52' E 029°13'0 0.0
2017-Oct-02 23:56N 40°52' E 029°13'0 0.0
2017-Oct-02 23:26N 40°52' E 029°13'0 0.0
2017-Oct-02 22:56N 40°52' E 029°13'0 0.1
2017-Oct-02 22:26N 40°52' E 029°13'0 0.0
2017-Oct-02 21:56N 40°52' E 029°13'0 0.0
2017-Oct-02 20:50N 40°52' E 029°13'0 0.0
2017-Oct-02 20:26N 40°52' E 029°13'0 0.0
2017-Oct-02 19:44N 40°52' E 029°13'0 0.1
2017-Oct-02 19:20N 40°52' E 029°13'0 0.0
2017-Oct-02 18:50N 40°52' E 029°13'0 0.0
2017-Oct-02 18:26N 40°52' E 029°13'0 0.0
2017-Oct-02 17:56N 40°52' E 029°13'0 0.0
2017-Oct-02 17:26N 40°52' E 029°13'0 0.1
2017-Oct-02 16:50N 40°52' E 029°13'0 0.1
2017-Oct-02 16:20N 40°52' E 029°13'0 0.1
2017-Oct-02 15:56N 40°52' E 029°13'0 0.1
2017-Oct-02 15:26N 40°52' E 029°13'0 0.0
2017-Oct-02 14:08N 40°52' E 029°13'0 0.1
2017-Oct-02 13:56N 40°52' E 029°13'0 0.0
2017-Oct-02 13:26N 40°52' E 029°13'0 0.1
2017-Oct-02 12:56N 40°52' E 029°13'0 0.0
2017-Oct-02 12:08N 40°52' E 029°13'0 0.1
2017-Oct-02 11:56N 40°52' E 029°13'0 0.0
2017-Oct-02 11:26N 40°52' E 029°13'0 0.0
2017-Oct-02 10:50N 40°52' E 029°13'0 0.0
2017-Oct-02 10:26N 40°52' E 029°13'0 0.0
2017-Oct-02 09:50N 40°52' E 029°13'0 0.0
2017-Oct-02 09:26N 40°52' E 029°13'0 0.0
2017-Oct-02 08:44N 40°52' E 029°13'0 0.0
2017-Oct-02 08:26N 40°52' E 029°13'0 0.0
2017-Oct-02 07:56N 40°52' E 029°13'0 0.0
2017-Oct-02 07:26N 40°52' E 029°13'0 0.0
2017-Oct-02 06:56N 40°52' E 029°13'0 0.0
2017-Oct-02 06:26N 40°52' E 029°13'0 0.1
2017-Oct-02 05:56N 40°52' E 029°13'0 0.1
2017-Oct-02 05:14N 40°52' E 029°13'0 0.1
2017-Oct-02 04:56N 40°52' E 029°13'0 0.1
2017-Oct-02 04:26N 40°52' E 029°13'0 0.1
2017-Oct-02 03:56N 40°52' E 029°13'0 0.0
2017-Oct-02 03:26N 40°52' E 029°13'0 0.1
2017-Oct-02 02:56N 40°52' E 029°13'0 0.0
2017-Oct-02 02:26N 40°52' E 029°13'0 0.1
2017-Oct-02 01:50N 40°52' E 029°13'0 0.0
2017-Oct-02 01:20N 40°52' E 029°13'0 0.1
2017-Oct-02 00:56N 40°52' E 029°13'0 0.0
2017-Oct-02 00:20N 40°52' E 029°13'0 0.1
2017-Oct-01 23:56N 40°52' E 029°13'0 0.0
2017-Oct-01 23:26N 40°52' E 029°13'0 0.1
2017-Oct-01 22:56N 40°52' E 029°13'0 0.1
2017-Oct-01 22:26N 40°52' E 029°13'0 0.0
2017-Oct-01 21:50N 40°52' E 029°13'0 0.0
2017-Oct-01 21:20N 40°52' E 029°13'0 0.0
2017-Oct-01 20:56N 40°52' E 029°13'0 0.1
2017-Oct-01 20:25N 40°52' E 029°13'0 0.1
2017-Oct-01 19:55N 40°52' E 029°13'0 0.1
2017-Oct-01 19:25N 40°52' E 029°13'0 0.0
2017-Oct-01 18:55N 40°52' E 029°13'0 0.0
2017-Oct-01 18:25N 40°52' E 029°13'0 0.1
2017-Oct-01 17:55N 40°52' E 029°13'0 0.0
2017-Oct-01 17:19N 40°52' E 029°13'0 0.0
2017-Oct-01 16:55N 40°52' E 029°13'0 0.0
2017-Oct-01 16:25N 40°52' E 029°13'0 0.0
2017-Oct-01 15:55N 40°52' E 029°13'0 0.0
2017-Oct-01 15:25N 40°52' E 029°13'0 0.0
2017-Oct-01 14:55N 40°52' E 029°13'0 0.0
2017-Oct-01 14:25N 40°52' E 029°13'0 0.0
2017-Oct-01 13:55N 40°52' E 029°13'0 0.0
2017-Oct-01 13:25N 40°52' E 029°13'0 0.0
2017-Oct-01 12:55N 40°52' E 029°13'0 0.0
2017-Oct-01 12:25N 40°52' E 029°13'0 0.0
2017-Oct-01 11:49N 40°52' E 029°13'0 0.0
2017-Oct-01 11:25N 40°52' E 029°13'0 0.0
2017-Oct-01 10:55N 40°52' E 029°13'0 0.0
2017-Oct-01 10:25N 40°52' E 029°13'0 0.0
2017-Oct-01 09:55N 40°52' E 029°13'0 0.0
2017-Oct-01 09:25N 40°52' E 029°13'0 0.0
2017-Oct-01 08:49N 40°52' E 029°13'0 0.1
2017-Oct-01 08:25N 40°52' E 029°13'0 0.0
2017-Oct-01 07:55N 40°52' E 029°13'0 0.1
2017-Oct-01 07:25N 40°52' E 029°13'0 0.0
2017-Oct-01 06:55N 40°52' E 029°13'0 0.0
2017-Oct-01 06:07N 40°52' E 029°13'0 0.0
2017-Oct-01 05:55N 40°52' E 029°13'0 0.0
2017-Oct-01 05:25N 40°52' E 029°13'0 0.0
2017-Oct-01 04:55N 40°52' E 029°13'0 0.0
2017-Oct-01 04:19N 40°52' E 029°13'0 0.0
2017-Oct-01 03:55N 40°52' E 029°13'0 0.0
2017-Oct-01 03:19N 40°52' E 029°13'0 0.0
2017-Oct-01 02:55N 40°52' E 029°13'  
Track history (hours):
 
Tides and Currents Weather Stations Pressure Air Temp Water Temp Dewpoint Dewpoint Depression Visibility Wind Speed Wind Dir Waves Ship Positions

Helga

Last reported at 2017-Oct-07 19:31 UTC. Time now 2017-Oct-16 22:28 UTC.
Position N 45°30' E 036°44'.
Warning: this ship's position is 9 days out of date.

Length 79 m.

Type: Ship. MMSI: 214180204.

Date/timePositionNaut miles runAvg speedWind from/ knotsBaromVisibWave heightAir tempDewpointWater temp
2017-Oct-07 19:31N 45°30' E 036°44'0 8.4
2017-Oct-07 19:30N 45°30' E 036°44'4 8.0
2017-Oct-07 19:00N 45°26' E 036°42'4 8.2
2017-Oct-07 18:30N 45°22' E 036°40'4 7.1
2017-Oct-07 18:00N 45°20' E 036°37'4 7.8
2017-Oct-07 17:30N 45°19' E 036°31'3 6.3
2017-Oct-07 17:00N 45°16' E 036°29'3 1.1
2017-Oct-07 14:18N 45°14' E 036°31'0 0.0
2017-Oct-07 13:59N 45°14' E 036°31'0 0.0
2017-Oct-07 13:25N 45°14' E 036°31'0 0.0
2017-Oct-07 13:00N 45°14' E 036°31'0 0.0
2017-Oct-07 11:39N 45°14' E 036°31'0 0.0
2017-Oct-07 11:30N 45°14' E 036°31'0 0.0
2017-Oct-07 11:00N 45°14' E 036°31'0 0.0
2017-Oct-07 10:26N 45°14' E 036°31'0 0.0
2017-Oct-07 09:49N 45°14' E 036°31'0 0.0
2017-Oct-07 06:31N 45°14' E 036°31'0 0.2
2017-Oct-07 06:29N 45°14' E 036°31'0 0.0
2017-Oct-07 06:00N 45°14' E 036°31'0 0.0
2017-Oct-07 05:29N 45°14' E 036°31'0 0.0
2017-Oct-07 05:00N 45°14' E 036°31'0 0.0
2017-Oct-07 04:30N 45°14' E 036°31'0 0.0
2017-Oct-07 03:58N 45°14' E 036°31'0 0.0
2017-Oct-07 03:23N 45°14' E 036°31'0 0.0
2017-Oct-07 02:22N 45°14' E 036°31'0 0.0
2017-Oct-07 01:54N 45°14' E 036°31'0 0.0
2017-Oct-07 01:30N 45°14' E 036°31'0 0.0
2017-Oct-07 00:29N 45°14' E 036°31'0 0.0
2017-Oct-07 00:00N 45°14' E 036°31'0 0.0
2017-Oct-06 23:30N 45°14' E 036°31'0 0.0
2017-Oct-06 22:23N 45°14' E 036°31'0 0.0
2017-Oct-06 21:52N 45°14' E 036°31'0 0.0
2017-Oct-06 21:29N 45°14' E 036°31'0 0.0
2017-Oct-06 20:05N 45°14' E 036°31'0 0.2
2017-Oct-06 20:00N 45°14' E 036°31'0 0.0
2017-Oct-06 19:30N 45°14' E 036°31'0 0.0
2017-Oct-06 15:40N 45°14' E 036°31'0 0.0
2017-Oct-06 15:17N 45°14' E 036°31'0 0.0
2017-Oct-06 15:00N 45°14' E 036°31'0 0.0
2017-Oct-06 14:29N 45°14' E 036°31'0 0.0
2017-Oct-06 13:58N 45°14' E 036°31'0 0.0
2017-Oct-06 13:14N 45°14' E 036°31'0 0.0
2017-Oct-06 12:55N 45°14' E 036°31'0 0.0
2017-Oct-06 12:30N 45°14' E 036°31'0 0.0
2017-Oct-06 11:58N 45°14' E 036°31'0 0.0
2017-Oct-06 11:22N 45°14' E 036°31'0 0.0
2017-Oct-06 10:50N 45°14' E 036°31'0 0.0
2017-Oct-06 10:29N 45°14' E 036°31'0 0.0
2017-Oct-06 09:51N 45°14' E 036°31'0 0.1
2017-Oct-06 09:29N 45°14' E 036°31'0 0.0
2017-Oct-06 08:56N 45°14' E 036°31'0 0.0
2017-Oct-06 08:29N 45°14' E 036°31'0 0.0
2017-Oct-06 08:00N 45°14' E 036°31'0 0.0
2017-Oct-06 07:24N 45°14' E 036°31'0 0.1
2017-Oct-06 07:00N 45°14' E 036°31'0 0.1
2017-Oct-06 06:30N 45°14' E 036°31'0 0.0
2017-Oct-06 05:57N 45°14' E 036°31'0 0.0
2017-Oct-06 05:29N 45°14' E 036°31'0 0.1
2017-Oct-06 05:00N 45°14' E 036°31'0 0.0
2017-Oct-06 04:30N 45°14' E 036°31'0 0.1
2017-Oct-06 04:00N 45°14' E 036°31'  
2017-Oct-03 13:04N 40°56' E 029°03'0 6.4
2017-Oct-03 13:00N 40°55' E 029°04'4 7.3
2017-Oct-03 12:29N 40°53' E 029°08'2 4.2
2017-Oct-03 12:00N 40°53' E 029°11'2 2.7
2017-Oct-03 11:21N 40°52' E 029°13'0 0.1
2017-Oct-03 10:57N 40°52' E 029°13'0 0.0
2017-Oct-03 10:02N 40°52' E 029°13'0 0.3
2017-Oct-03 09:56N 40°52' E 029°13'0 0.1
2017-Oct-03 09:26N 40°52' E 029°13'0 0.1
2017-Oct-03 08:56N 40°52' E 029°13'0 0.0
2017-Oct-03 08:26N 40°52' E 029°13'0 0.1
2017-Oct-03 07:56N 40°52' E 029°13'0 0.0
2017-Oct-03 07:26N 40°52' E 029°13'0 0.1
2017-Oct-03 06:56N 40°52' E 029°13'0 0.0
2017-Oct-03 06:26N 40°52' E 029°13'0 0.1
2017-Oct-03 05:56N 40°52' E 029°13'0 0.0
2017-Oct-03 05:26N 40°52' E 029°13'0 0.0
2017-Oct-03 04:56N 40°52' E 029°13'0 0.0
2017-Oct-03 04:20N 40°52' E 029°13'0 0.0
2017-Oct-03 03:56N 40°52' E 029°13'0 0.0
2017-Oct-03 03:26N 40°52' E 029°13'0 0.1
2017-Oct-03 02:56N 40°52' E 029°13'0 0.0
2017-Oct-03 02:26N 40°52' E 029°13'0 0.0
2017-Oct-03 01:50N 40°52' E 029°13'0 0.0
2017-Oct-03 01:20N 40°52' E 029°13'0 0.0
2017-Oct-03 00:50N 40°52' E 029°13'0 0.0
2017-Oct-03 00:26N 40°52' E 029°13'0 0.0
2017-Oct-02 23:56N 40°52' E 029°13'0 0.0
2017-Oct-02 23:26N 40°52' E 029°13'0 0.0
2017-Oct-02 22:56N 40°52' E 029°13'0 0.1
2017-Oct-02 22:26N 40°52' E 029°13'0 0.0
2017-Oct-02 21:56N 40°52' E 029°13'0 0.0
2017-Oct-02 20:50N 40°52' E 029°13'0 0.0
2017-Oct-02 20:26N 40°52' E 029°13'0 0.0
2017-Oct-02 19:44N 40°52' E 029°13'0 0.1
2017-Oct-02 19:20N 40°52' E 029°13'0 0.0
2017-Oct-02 18:50N 40°52' E 029°13'0 0.0
2017-Oct-02 18:26N 40°52' E 029°13'0 0.0
2017-Oct-02 17:56N 40°52' E 029°13'0 0.0
2017-Oct-02 17:26N 40°52' E 029°13'0 0.1
2017-Oct-02 16:50N 40°52' E 029°13'0 0.1
2017-Oct-02 16:20N 40°52' E 029°13'0 0.1
2017-Oct-02 15:56N 40°52' E 029°13'0 0.1
2017-Oct-02 15:26N 40°52' E 029°13'0 0.0
2017-Oct-02 14:08N 40°52' E 029°13'0 0.1
2017-Oct-02 13:56N 40°52' E 029°13'0 0.0
2017-Oct-02 13:26N 40°52' E 029°13'0 0.1
2017-Oct-02 12:56N 40°52' E 029°13'0 0.0
2017-Oct-02 12:08N 40°52' E 029°13'0 0.1
2017-Oct-02 11:56N 40°52' E 029°13'0 0.0
2017-Oct-02 11:26N 40°52' E 029°13'0 0.0
2017-Oct-02 10:50N 40°52' E 029°13'0 0.0
2017-Oct-02 10:26N 40°52' E 029°13'0 0.0
2017-Oct-02 09:50N 40°52' E 029°13'0 0.0
2017-Oct-02 09:26N 40°52' E 029°13'0 0.0
2017-Oct-02 08:44N 40°52' E 029°13'0 0.0
2017-Oct-02 08:26N 40°52' E 029°13'0 0.0
2017-Oct-02 07:56N 40°52' E 029°13'0 0.0
2017-Oct-02 07:26N 40°52' E 029°13'0 0.0
2017-Oct-02 06:56N 40°52' E 029°13'0 0.0
2017-Oct-02 06:26N 40°52' E 029°13'0 0.1
2017-Oct-02 05:56N 40°52' E 029°13'0 0.1
2017-Oct-02 05:14N 40°52' E 029°13'0 0.1
2017-Oct-02 04:56N 40°52' E 029°13'0 0.1
2017-Oct-02 04:26N 40°52' E 029°13'0 0.1
2017-Oct-02 03:56N 40°52' E 029°13'0 0.0
2017-Oct-02 03:26N 40°52' E 029°13'0 0.1
2017-Oct-02 02:56N 40°52' E 029°13'0 0.0
2017-Oct-02 02:26N 40°52' E 029°13'0 0.1
2017-Oct-02 01:50N 40°52' E 029°13'0 0.0
2017-Oct-02 01:20N 40°52' E 029°13'0 0.1
2017-Oct-02 00:56N 40°52' E 029°13'0 0.0
2017-Oct-02 00:20N 40°52' E 029°13'0 0.1
2017-Oct-01 23:56N 40°52' E 029°13'0 0.0
2017-Oct-01 23:26N 40°52' E 029°13'0 0.1
2017-Oct-01 22:56N 40°52' E 029°13'0 0.1
2017-Oct-01 22:26N 40°52' E 029°13'0 0.0
2017-Oct-01 21:50N 40°52' E 029°13'0 0.0
2017-Oct-01 21:20N 40°52' E 029°13'0 0.0
2017-Oct-01 20:56N 40°52' E 029°13'0 0.1
2017-Oct-01 20:25N 40°52' E 029°13'0 0.1
2017-Oct-01 19:55N 40°52' E 029°13'0 0.1
2017-Oct-01 19:25N 40°52' E 029°13'0 0.0
2017-Oct-01 18:55N 40°52' E 029°13'0 0.0
2017-Oct-01 18:25N 40°52' E 029°13'0 0.1
2017-Oct-01 17:55N 40°52' E 029°13'0 0.0
2017-Oct-01 17:19N 40°52' E 029°13'0 0.0
2017-Oct-01 16:55N 40°52' E 029°13'0 0.0
2017-Oct-01 16:25N 40°52' E 029°13'0 0.0
2017-Oct-01 15:55N 40°52' E 029°13'0 0.0
2017-Oct-01 15:25N 40°52' E 029°13'0 0.0
2017-Oct-01 14:55N 40°52' E 029°13'0 0.0
2017-Oct-01 14:25N 40°52' E 029°13'0 0.0
2017-Oct-01 13:55N 40°52' E 029°13'0 0.0
2017-Oct-01 13:25N 40°52' E 029°13'0 0.0
2017-Oct-01 12:55N 40°52' E 029°13'0 0.0
2017-Oct-01 12:25N 40°52' E 029°13'0 0.0
2017-Oct-01 11:49N 40°52' E 029°13'0 0.0
2017-Oct-01 11:25N 40°52' E 029°13'0 0.0
2017-Oct-01 10:55N 40°52' E 029°13'0 0.0
2017-Oct-01 10:25N 40°52' E 029°13'0 0.0
2017-Oct-01 09:55N 40°52' E 029°13'0 0.0
2017-Oct-01 09:25N 40°52' E 029°13'0 0.0
2017-Oct-01 08:49N 40°52' E 029°13'0 0.1
2017-Oct-01 08:25N 40°52' E 029°13'0 0.0
2017-Oct-01 07:55N 40°52' E 029°13'0 0.1
2017-Oct-01 07:25N 40°52' E 029°13'0 0.0
2017-Oct-01 06:55N 40°52' E 029°13'0 0.0
2017-Oct-01 06:07N 40°52' E 029°13'0 0.0
2017-Oct-01 05:55N 40°52' E 029°13'0 0.0
2017-Oct-01 05:25N 40°52' E 029°13'0 0.0
2017-Oct-01 04:55N 40°52' E 029°13'0 0.0
2017-Oct-01 04:19N 40°52' E 029°13'0 0.0
2017-Oct-01 03:55N 40°52' E 029°13'0 0.0
2017-Oct-01 03:19N 40°52' E 029°13'0 0.0
2017-Oct-01 02:55N 40°52' E 029°13'  

Dump ship's entire track history